sensor_id;sensor_type;location;lat;lon;timestamp;P1;durP1;ratioP1;P2;durP2;ratioP2
65071;SDS011;51663;52.310;17.016;2023-03-30T00:00:57;17.13;;;11.00;;
65071;SDS011;51663;52.310;17.016;2023-03-30T00:03:59;16.10;;;10.90;;
65071;SDS011;51663;52.310;17.016;2023-03-30T00:07:03;14.00;;;10.43;;
65071;SDS011;51663;52.310;17.016;2023-03-30T00:10:06;17.50;;;10.13;;
65071;SDS011;51663;52.310;17.016;2023-03-30T00:13:10;19.50;;;11.27;;
65071;SDS011;51663;52.310;17.016;2023-03-30T00:16:13;16.03;;;10.30;;
65071;SDS011;51663;52.310;17.016;2023-03-30T00:19:15;20.60;;;11.33;;
65071;SDS011;51663;52.310;17.016;2023-03-30T00:22:18;21.27;;;11.53;;
65071;SDS011;51663;52.310;17.016;2023-03-30T00:25:20;17.47;;;11.73;;
65071;SDS011;51663;52.310;17.016;2023-03-30T00:28:23;17.93;;;10.70;;
65071;SDS011;51663;52.310;17.016;2023-03-30T00:31:27;16.30;;;10.47;;
65071;SDS011;51663;52.310;17.016;2023-03-30T00:34:29;19.97;;;11.93;;
65071;SDS011;51663;52.310;17.016;2023-03-30T00:37:31;21.93;;;12.20;;
65071;SDS011;51663;52.310;17.016;2023-03-30T00:40:37;29.13;;;13.70;;
65071;SDS011;51663;52.310;17.016;2023-03-30T00:47:01;20.80;;;11.60;;
65071;SDS011;51663;52.310;17.016;2023-03-30T00:50:04;15.17;;;9.83;;
65071;SDS011;51663;52.310;17.016;2023-03-30T00:53:13;15.63;;;10.40;;
65071;SDS011;51663;52.310;17.016;2023-03-30T00:56:18;15.20;;;10.53;;
65071;SDS011;51663;52.310;17.016;2023-03-30T00:59:27;19.87;;;11.50;;
65071;SDS011;51663;52.310;17.016;2023-03-30T01:02:29;18.70;;;11.93;;
65071;SDS011;51663;52.310;17.016;2023-03-30T01:05:33;15.70;;;10.87;;
65071;SDS011;51663;52.310;17.016;2023-03-30T01:08:39;16.80;;;11.00;;
65071;SDS011;51663;52.310;17.016;2023-03-30T01:11:42;15.30;;;10.53;;
65071;SDS011;51663;52.310;17.016;2023-03-30T01:14:45;15.50;;;10.90;;
65071;SDS011;51663;52.310;17.016;2023-03-30T01:17:55;13.80;;;10.93;;
65071;SDS011;51663;52.310;17.016;2023-03-30T01:28:01;18.03;;;11.87;;
65071;SDS011;51663;52.310;17.016;2023-03-30T01:32:27;15.60;;;11.50;;
65071;SDS011;51663;52.310;17.016;2023-03-30T01:45:36;15.13;;;10.37;;
65071;SDS011;51663;52.310;17.016;2023-03-30T01:52:38;17.03;;;11.07;;
65071;SDS011;51663;52.310;17.016;2023-03-30T01:55:54;15.37;;;11.20;;
65071;SDS011;51663;52.310;17.016;2023-03-30T01:59:13;14.50;;;11.23;;
65071;SDS011;51663;52.310;17.016;2023-03-30T02:02:29;14.27;;;10.53;;
65071;SDS011;51663;52.310;17.016;2023-03-30T02:05:33;11.90;;;10.40;;
65071;SDS011;51663;52.310;17.016;2023-03-30T02:08:36;20.30;;;11.83;;
65071;SDS011;51663;52.310;17.016;2023-03-30T02:11:42;16.23;;;11.13;;
65071;SDS011;51663;52.310;17.016;2023-03-30T02:14:48;16.33;;;11.27;;
65071;SDS011;51663;52.310;17.016;2023-03-30T02:17:51;16.60;;;11.43;;
65071;SDS011;51663;52.310;17.016;2023-03-30T02:20:54;14.37;;;10.57;;
65071;SDS011;51663;52.310;17.016;2023-03-30T02:23:59;17.03;;;11.60;;
65071;SDS011;51663;52.310;17.016;2023-03-30T02:27:04;15.63;;;11.43;;
65071;SDS011;51663;52.310;17.016;2023-03-30T02:30:07;12.67;;;11.00;;
65071;SDS011;51663;52.310;17.016;2023-03-30T02:33:13;14.17;;;11.37;;
65071;SDS011;51663;52.310;17.016;2023-03-30T02:43:25;13.67;;;10.83;;
65071;SDS011;51663;52.310;17.016;2023-03-30T02:47:28;15.93;;;11.60;;
65071;SDS011;51663;52.310;17.016;2023-03-30T02:50:22;17.10;;;11.53;;
65071;SDS011;51663;52.310;17.016;2023-03-30T02:53:47;16.23;;;11.80;;
65071;SDS011;51663;52.310;17.016;2023-03-30T03:00:21;15.03;;;11.30;;
65071;SDS011;51663;52.310;17.016;2023-03-30T03:03:35;13.50;;;11.77;;
65071;SDS011;51663;52.310;17.016;2023-03-30T03:06:46;16.63;;;12.17;;
65071;SDS011;51663;52.310;17.016;2023-03-30T03:09:53;17.90;;;12.60;;
65071;SDS011;51663;52.310;17.016;2023-03-30T03:12:55;16.60;;;12.63;;
65071;SDS011;51663;52.310;17.016;2023-03-30T03:15:57;20.03;;;12.73;;
65071;SDS011;51663;52.310;17.016;2023-03-30T03:19:04;15.50;;;12.60;;
65071;SDS011;51663;52.310;17.016;2023-03-30T03:22:06;16.77;;;12.10;;
65071;SDS011;51663;52.310;17.016;2023-03-30T03:25:09;18.67;;;13.50;;
65071;SDS011;51663;52.310;17.016;2023-03-30T03:28:12;16.97;;;12.97;;
65071;SDS011;51663;52.310;17.016;2023-03-30T03:31:14;19.30;;;13.50;;
65071;SDS011;51663;52.310;17.016;2023-03-30T03:34:16;17.30;;;13.90;;
65071;SDS011;51663;52.310;17.016;2023-03-30T03:37:18;15.97;;;12.67;;
65071;SDS011;51663;52.310;17.016;2023-03-30T03:40:21;17.67;;;13.10;;
65071;SDS011;51663;52.310;17.016;2023-03-30T03:43:23;20.97;;;14.00;;
65071;SDS011;51663;52.310;17.016;2023-03-30T03:46:26;18.17;;;13.43;;
65071;SDS011;51663;52.310;17.016;2023-03-30T03:49:29;19.07;;;13.47;;
65071;SDS011;51663;52.310;17.016;2023-03-30T03:52:31;18.97;;;14.30;;
65071;SDS011;51663;52.310;17.016;2023-03-30T03:55:33;17.63;;;14.40;;
65071;SDS011;51663;52.310;17.016;2023-03-30T03:58:35;18.70;;;14.70;;
65071;SDS011;51663;52.310;17.016;2023-03-30T04:01:38;18.90;;;15.27;;
65071;SDS011;51663;52.310;17.016;2023-03-30T04:04:40;21.90;;;16.00;;
65071;SDS011;51663;52.310;17.016;2023-03-30T04:07:42;20.67;;;15.47;;
65071;SDS011;51663;52.310;17.016;2023-03-30T04:10:46;18.63;;;14.87;;
65071;SDS011;51663;52.310;17.016;2023-03-30T04:13:49;20.37;;;14.70;;
65071;SDS011;51663;52.310;17.016;2023-03-30T04:16:51;19.93;;;15.43;;
65071;SDS011;51663;52.310;17.016;2023-03-30T04:19:53;21.20;;;15.47;;
65071;SDS011;51663;52.310;17.016;2023-03-30T04:22:56;23.07;;;16.17;;
65071;SDS011;51663;52.310;17.016;2023-03-30T04:26:03;20.10;;;16.07;;
65071;SDS011;51663;52.310;17.016;2023-03-30T04:29:06;22.03;;;15.63;;
65071;SDS011;51663;52.310;17.016;2023-03-30T04:32:09;21.33;;;16.13;;
65071;SDS011;51663;52.310;17.016;2023-03-30T04:35:14;19.70;;;16.30;;
65071;SDS011;51663;52.310;17.016;2023-03-30T04:38:17;20.80;;;16.60;;
65071;SDS011;51663;52.310;17.016;2023-03-30T04:41:24;19.40;;;16.10;;
65071;SDS011;51663;52.310;17.016;2023-03-30T04:44:30;20.10;;;15.57;;
65071;SDS011;51663;52.310;17.016;2023-03-30T04:47:33;23.17;;;16.50;;
65071;SDS011;51663;52.310;17.016;2023-03-30T04:50:36;21.20;;;16.10;;
65071;SDS011;51663;52.310;17.016;2023-03-30T04:53:38;23.03;;;16.87;;
65071;SDS011;51663;52.310;17.016;2023-03-30T04:56:40;20.87;;;16.07;;
65071;SDS011;51663;52.310;17.016;2023-03-30T04:59:43;22.43;;;17.17;;
65071;SDS011;51663;52.310;17.016;2023-03-30T05:02:46;22.43;;;17.80;;
65071;SDS011;51663;52.310;17.016;2023-03-30T05:05:48;20.60;;;17.30;;
65071;SDS011;51663;52.310;17.016;2023-03-30T05:08:50;24.83;;;17.03;;
65071;SDS011;51663;52.310;17.016;2023-03-30T05:11:53;22.13;;;16.37;;
65071;SDS011;51663;52.310;17.016;2023-03-30T05:14:55;20.97;;;16.63;;
65071;SDS011;51663;52.310;17.016;2023-03-30T05:17:58;19.13;;;15.57;;
65071;SDS011;51663;52.310;17.016;2023-03-30T05:21:00;19.33;;;15.43;;
65071;SDS011;51663;52.310;17.016;2023-03-30T05:24:03;17.57;;;14.90;;
65071;SDS011;51663;52.310;17.016;2023-03-30T05:27:06;19.80;;;15.30;;
65071;SDS011;51663;52.310;17.016;2023-03-30T05:30:08;18.33;;;14.67;;
65071;SDS011;51663;52.310;17.016;2023-03-30T05:33:11;16.70;;;14.80;;
65071;SDS011;51663;52.310;17.016;2023-03-30T05:36:13;18.53;;;15.17;;
65071;SDS011;51663;52.310;17.016;2023-03-30T05:39:18;16.93;;;14.17;;
65071;SDS011;51663;52.310;17.016;2023-03-30T05:42:20;18.47;;;14.80;;
65071;SDS011;51663;52.310;17.016;2023-03-30T05:45:23;19.40;;;14.17;;
65071;SDS011;51663;52.310;17.016;2023-03-30T05:48:25;17.53;;;14.70;;
65071;SDS011;51663;52.310;17.016;2023-03-30T05:51:27;19.00;;;14.50;;
65071;SDS011;51663;52.310;17.016;2023-03-30T05:54:29;18.03;;;14.47;;
65071;SDS011;51663;52.310;17.016;2023-03-30T05:57:33;17.70;;;14.00;;
65071;SDS011;51663;52.310;17.016;2023-03-30T06:00:35;15.80;;;12.67;;
65071;SDS011;51663;52.310;17.016;2023-03-30T06:03:38;16.90;;;13.13;;
65071;SDS011;51663;52.310;17.016;2023-03-30T06:06:40;19.20;;;14.00;;
65071;SDS011;51663;52.310;17.016;2023-03-30T06:09:43;16.83;;;13.90;;
65071;SDS011;51663;52.310;17.016;2023-03-30T06:12:45;16.20;;;13.10;;
65071;SDS011;51663;52.310;17.016;2023-03-30T06:15:47;16.73;;;13.60;;
65071;SDS011;51663;52.310;17.016;2023-03-30T06:18:50;16.97;;;13.27;;
65071;SDS011;51663;52.310;17.016;2023-03-30T06:21:52;16.67;;;13.17;;
65071;SDS011;51663;52.310;17.016;2023-03-30T06:24:54;17.80;;;13.40;;
65071;SDS011;51663;52.310;17.016;2023-03-30T06:27:57;14.07;;;12.60;;
65071;SDS011;51663;52.310;17.016;2023-03-30T06:30:59;15.67;;;13.20;;
65071;SDS011;51663;52.310;17.016;2023-03-30T06:34:03;15.80;;;12.77;;
65071;SDS011;51663;52.310;17.016;2023-03-30T06:37:06;15.47;;;12.83;;
65071;SDS011;51663;52.310;17.016;2023-03-30T06:40:09;15.33;;;12.20;;
65071;SDS011;51663;52.310;17.016;2023-03-30T06:43:14;14.67;;;12.07;;
65071;SDS011;51663;52.310;17.016;2023-03-30T06:46:19;13.47;;;11.80;;
65071;SDS011;51663;52.310;17.016;2023-03-30T06:49:21;14.27;;;11.70;;
65071;SDS011;51663;52.310;17.016;2023-03-30T06:52:23;13.63;;;12.07;;
65071;SDS011;51663;52.310;17.016;2023-03-30T06:55:25;13.57;;;11.40;;
65071;SDS011;51663;52.310;17.016;2023-03-30T06:58:28;13.83;;;11.43;;
65071;SDS011;51663;52.310;17.016;2023-03-30T07:01:31;14.13;;;12.23;;
65071;SDS011;51663;52.310;17.016;2023-03-30T07:04:34;14.93;;;11.97;;
65071;SDS011;51663;52.310;17.016;2023-03-30T07:07:36;16.07;;;12.63;;
65071;SDS011;51663;52.310;17.016;2023-03-30T07:10:39;12.10;;;10.90;;
65071;SDS011;51663;52.310;17.016;2023-03-30T07:13:41;15.87;;;12.57;;
65071;SDS011;51663;52.310;17.016;2023-03-30T07:16:43;14.47;;;12.43;;
65071;SDS011;51663;52.310;17.016;2023-03-30T07:19:46;13.40;;;12.00;;
65071;SDS011;51663;52.310;17.016;2023-03-30T07:22:48;16.17;;;13.17;;
65071;SDS011;51663;52.310;17.016;2023-03-30T07:25:50;14.90;;;13.33;;
65071;SDS011;51663;52.310;17.016;2023-03-30T07:28:53;15.83;;;13.43;;
65071;SDS011;51663;52.310;17.016;2023-03-30T07:31:56;21.67;;;13.63;;
65071;SDS011;51663;52.310;17.016;2023-03-30T07:34:59;14.37;;;12.20;;
65071;SDS011;51663;52.310;17.016;2023-03-30T07:38:01;16.77;;;13.40;;
65071;SDS011;51663;52.310;17.016;2023-03-30T07:41:05;16.37;;;13.30;;
65071;SDS011;51663;52.310;17.016;2023-03-30T07:44:12;17.37;;;13.27;;
65071;SDS011;51663;52.310;17.016;2023-03-30T07:47:15;14.23;;;12.03;;
65071;SDS011;51663;52.310;17.016;2023-03-30T07:50:17;15.37;;;13.00;;
65071;SDS011;51663;52.310;17.016;2023-03-30T07:56:49;13.73;;;11.70;;
65071;SDS011;51663;52.310;17.016;2023-03-30T07:59:53;13.63;;;12.17;;
65071;SDS011;51663;52.310;17.016;2023-03-30T08:02:56;14.90;;;11.30;;
65071;SDS011;51663;52.310;17.016;2023-03-30T08:06:01;12.33;;;11.07;;
65071;SDS011;51663;52.310;17.016;2023-03-30T08:09:07;14.83;;;11.03;;
65071;SDS011;51663;52.310;17.016;2023-03-30T08:12:10;14.07;;;11.10;;
65071;SDS011;51663;52.310;17.016;2023-03-30T08:15:12;13.83;;;11.27;;
65071;SDS011;51663;52.310;17.016;2023-03-30T08:18:14;15.00;;;11.63;;
65071;SDS011;51663;52.310;17.016;2023-03-30T08:21:17;13.47;;;11.07;;
65071;SDS011;51663;52.310;17.016;2023-03-30T08:24:20;13.90;;;10.43;;
65071;SDS011;51663;52.310;17.016;2023-03-30T08:27:22;11.30;;;10.20;;
65071;SDS011;51663;52.310;17.016;2023-03-30T08:30:24;12.80;;;10.37;;
65071;SDS011;51663;52.310;17.016;2023-03-30T08:33:26;10.43;;;8.70;;
65071;SDS011;51663;52.310;17.016;2023-03-30T08:36:29;10.23;;;9.10;;
65071;SDS011;51663;52.310;17.016;2023-03-30T08:39:32;11.07;;;9.97;;
65071;SDS011;51663;52.310;17.016;2023-03-30T08:45:43;9.70;;;8.73;;
65071;SDS011;51663;52.310;17.016;2023-03-30T08:48:46;12.47;;;10.13;;
65071;SDS011;51663;52.310;17.016;2023-03-30T08:51:52;10.33;;;9.17;;
65071;SDS011;51663;52.310;17.016;2023-03-30T08:54:55;10.05;;;9.05;;
65071;SDS011;51663;52.310;17.016;2023-03-30T09:11:01;12.77;;;10.00;;
65071;SDS011;51663;52.310;17.016;2023-03-30T09:14:18;10.48;;;8.38;;
65071;SDS011;51663;52.310;17.016;2023-03-30T09:17:38;12.75;;;8.65;;
65071;SDS011;51663;52.310;17.016;2023-03-30T09:20:56;11.10;;;8.38;;
65071;SDS011;51663;52.310;17.016;2023-03-30T09:24:00;9.88;;;8.52;;
65071;SDS011;51663;52.310;17.016;2023-03-30T09:30:39;8.90;;;7.82;;
65071;SDS011;51663;52.310;17.016;2023-03-30T09:33:45;8.90;;;8.00;;
65071;SDS011;51663;52.310;17.016;2023-03-30T09:46:47;8.75;;;7.90;;
65071;SDS011;51663;52.310;17.016;2023-03-30T09:49:58;9.77;;;8.23;;
65071;SDS011;51663;52.310;17.016;2023-03-30T09:53:19;8.77;;;8.07;;
65071;SDS011;51663;52.310;17.016;2023-03-30T09:56:35;8.27;;;7.32;;
65071;SDS011;51663;52.310;17.016;2023-03-30T09:59:45;8.82;;;6.85;;
65071;SDS011;51663;52.310;17.016;2023-03-30T10:02:57;8.45;;;7.15;;
65071;SDS011;51663;52.310;17.016;2023-03-30T10:06:08;7.82;;;7.03;;
65071;SDS011;51663;52.310;17.016;2023-03-30T10:09:13;6.43;;;5.80;;
65071;SDS011;51663;52.310;17.016;2023-03-30T10:12:25;8.93;;;6.63;;
65071;SDS011;51663;52.310;17.016;2023-03-30T10:15:27;8.80;;;8.00;;
65071;SDS011;51663;52.310;17.016;2023-03-30T10:18:37;9.52;;;7.50;;
65071;SDS011;51663;52.310;17.016;2023-03-30T10:21:41;8.93;;;8.02;;
65071;SDS011;51663;52.310;17.016;2023-03-30T10:24:48;8.07;;;7.38;;
65071;SDS011;51663;52.310;17.016;2023-03-30T10:27:56;8.45;;;7.53;;
65071;SDS011;51663;52.310;17.016;2023-03-30T10:31:04;8.20;;;7.22;;
65071;SDS011;51663;52.310;17.016;2023-03-30T10:34:15;8.93;;;8.02;;
65071;SDS011;51663;52.310;17.016;2023-03-30T10:40:38;9.30;;;8.23;;
65071;SDS011;51663;52.310;17.016;2023-03-30T10:43:43;9.75;;;8.75;;
65071;SDS011;51663;52.310;17.016;2023-03-30T10:46:46;11.68;;;9.43;;
65071;SDS011;51663;52.310;17.016;2023-03-30T10:49:54;9.65;;;8.75;;
65071;SDS011;51663;52.310;17.016;2023-03-30T10:53:08;9.60;;;8.20;;
65071;SDS011;51663;52.310;17.016;2023-03-30T11:03:24;8.98;;;8.18;;
65071;SDS011;51663;52.310;17.016;2023-03-30T11:06:33;17.80;;;9.10;;
65071;SDS011;51663;52.310;17.016;2023-03-30T11:09:40;10.75;;;9.65;;
65071;SDS011;51663;52.310;17.016;2023-03-30T11:13:00;16.80;;;10.48;;
65071;SDS011;51663;52.310;17.016;2023-03-30T11:16:12;10.77;;;9.50;;
65071;SDS011;51663;52.310;17.016;2023-03-30T11:19:37;11.70;;;9.30;;
65071;SDS011;51663;52.310;17.016;2023-03-30T11:22:44;13.98;;;9.10;;
65071;SDS011;51663;52.310;17.016;2023-03-30T11:25:58;11.88;;;9.80;;
65071;SDS011;51663;52.310;17.016;2023-03-30T11:35:57;9.30;;;8.40;;
65071;SDS011;51663;52.310;17.016;2023-03-30T11:39:10;10.35;;;9.38;;
65071;SDS011;51663;52.310;17.016;2023-03-30T11:42:34;10.90;;;9.55;;
65071;SDS011;51663;52.310;17.016;2023-03-30T11:49:06;13.73;;;9.52;;
65071;SDS011;51663;52.310;17.016;2023-03-30T11:55:36;12.55;;;10.57;;
65071;SDS011;51663;52.310;17.016;2023-03-30T11:59:05;14.38;;;11.07;;
65071;SDS011;51663;52.310;17.016;2023-03-30T12:08:43;11.52;;;10.32;;
65071;SDS011;51663;52.310;17.016;2023-03-30T12:11:50;15.25;;;9.80;;
65071;SDS011;51663;52.310;17.016;2023-03-30T12:18:49;14.30;;;10.23;;
65071;SDS011;51663;52.310;17.016;2023-03-30T12:33:09;11.38;;;8.93;;
65071;SDS011;51663;52.310;17.016;2023-03-30T12:36:22;12.48;;;9.05;;
65071;SDS011;51663;52.310;17.016;2023-03-30T13:02:23;11.23;;;8.55;;
65071;SDS011;51663;52.310;17.016;2023-03-30T13:06:19;16.63;;;9.02;;
65071;SDS011;51663;52.310;17.016;2023-03-30T13:17:59;14.38;;;8.98;;
65071;SDS011;51663;52.310;17.016;2023-03-30T13:33:36;9.63;;;8.57;;
65071;SDS011;51663;52.310;17.016;2023-03-30T13:59:12;13.23;;;9.70;;
65071;SDS011;51663;52.310;17.016;2023-03-30T14:07:23;10.60;;;8.85;;
65071;SDS011;51663;52.310;17.016;2023-03-30T14:10:27;10.63;;;8.00;;
65071;SDS011;51663;52.310;17.016;2023-03-30T14:13:29;12.38;;;9.88;;
65071;SDS011;51663;52.310;17.016;2023-03-30T14:16:35;18.80;;;11.60;;
65071;SDS011;51663;52.310;17.016;2023-03-30T14:24:16;24.23;;;16.77;;
65071;SDS011;51663;52.310;17.016;2023-03-30T14:27:20;14.07;;;11.88;;
65071;SDS011;51663;52.310;17.016;2023-03-30T14:30:23;13.73;;;8.63;;
65071;SDS011;51663;52.310;17.016;2023-03-30T14:33:30;14.60;;;7.43;;
65071;SDS011;51663;52.310;17.016;2023-03-30T14:36:33;8.35;;;6.03;;
65071;SDS011;51663;52.310;17.016;2023-03-30T14:39:43;10.63;;;6.88;;
65071;SDS011;51663;52.310;17.016;2023-03-30T14:42:49;10.65;;;6.95;;
65071;SDS011;51663;52.310;17.016;2023-03-30T14:45:52;11.70;;;7.60;;
65071;SDS011;51663;52.310;17.016;2023-03-30T14:48:58;9.15;;;6.60;;
65071;SDS011;51663;52.310;17.016;2023-03-30T14:52:07;7.80;;;5.78;;
65071;SDS011;51663;52.310;17.016;2023-03-30T14:55:17;12.13;;;6.68;;
65071;SDS011;51663;52.310;17.016;2023-03-30T14:58:25;9.98;;;6.30;;
65071;SDS011;51663;52.310;17.016;2023-03-30T15:01:30;9.20;;;6.32;;
65071;SDS011;51663;52.310;17.016;2023-03-30T15:04:34;8.38;;;5.47;;
65071;SDS011;51663;52.310;17.016;2023-03-30T15:16:17;6.72;;;5.90;;
65071;SDS011;51663;52.310;17.016;2023-03-30T15:41:47;19.45;;;7.35;;
65071;SDS011;51663;52.310;17.016;2023-03-30T16:09:14;12.07;;;7.78;;
65071;SDS011;51663;52.310;17.016;2023-03-30T16:12:27;11.63;;;7.35;;
65071;SDS011;51663;52.310;17.016;2023-03-30T16:15:31;11.93;;;6.88;;
65071;SDS011;51663;52.310;17.016;2023-03-30T16:18:34;14.27;;;6.82;;
65071;SDS011;51663;52.310;17.016;2023-03-30T16:21:36;11.00;;;7.32;;
65071;SDS011;51663;52.310;17.016;2023-03-30T16:24:38;10.00;;;7.28;;
65071;SDS011;51663;52.310;17.016;2023-03-30T16:27:43;9.40;;;7.03;;
65071;SDS011;51663;52.310;17.016;2023-03-30T16:38:58;12.60;;;9.43;;
65071;SDS011;51663;52.310;17.016;2023-03-30T16:46:31;13.35;;;9.15;;
65071;SDS011;51663;52.310;17.016;2023-03-30T16:49:34;13.38;;;8.10;;
65071;SDS011;51663;52.310;17.016;2023-03-30T16:52:36;12.25;;;8.23;;
65071;SDS011;51663;52.310;17.016;2023-03-30T16:55:38;11.77;;;7.45;;
65071;SDS011;51663;52.310;17.016;2023-03-30T16:58:41;15.88;;;9.93;;
65071;SDS011;51663;52.310;17.016;2023-03-30T17:01:43;19.73;;;11.60;;
65071;SDS011;51663;52.310;17.016;2023-03-30T17:04:46;20.27;;;12.15;;
65071;SDS011;51663;52.310;17.016;2023-03-30T17:07:48;19.48;;;12.05;;
65071;SDS011;51663;52.310;17.016;2023-03-30T17:10:54;15.95;;;10.75;;
65071;SDS011;51663;52.310;17.016;2023-03-30T17:14:04;12.60;;;9.40;;
65071;SDS011;51663;52.310;17.016;2023-03-30T17:17:06;13.60;;;9.82;;
65071;SDS011;51663;52.310;17.016;2023-03-30T17:23:21;16.98;;;10.63;;
65071;SDS011;51663;52.310;17.016;2023-03-30T17:26:26;12.52;;;9.23;;
65071;SDS011;51663;52.310;17.016;2023-03-30T17:29:29;14.27;;;10.05;;
65071;SDS011;51663;52.310;17.016;2023-03-30T17:32:31;14.13;;;9.98;;
65071;SDS011;51663;52.310;17.016;2023-03-30T17:35:33;18.55;;;11.77;;
65071;SDS011;51663;52.310;17.016;2023-03-30T17:38:35;12.85;;;9.13;;
65071;SDS011;51663;52.310;17.016;2023-03-30T17:41:38;13.88;;;9.77;;
65071;SDS011;51663;52.310;17.016;2023-03-30T17:44:41;14.20;;;9.67;;
65071;SDS011;51663;52.310;17.016;2023-03-30T17:47:44;10.35;;;8.48;;
65071;SDS011;51663;52.310;17.016;2023-03-30T17:50:47;11.13;;;8.83;;
65071;SDS011;51663;52.310;17.016;2023-03-30T17:53:51;16.60;;;11.10;;
65071;SDS011;51663;52.310;17.016;2023-03-30T17:56:53;15.80;;;10.47;;
65071;SDS011;51663;52.310;17.016;2023-03-30T17:59:55;23.90;;;16.13;;
65071;SDS011;51663;52.310;17.016;2023-03-30T18:02:58;46.80;;;29.47;;
65071;SDS011;51663;52.310;17.016;2023-03-30T18:06:02;19.80;;;14.73;;
65071;SDS011;51663;52.310;17.016;2023-03-30T18:09:16;13.13;;;10.13;;
65071;SDS011;51663;52.310;17.016;2023-03-30T18:12:18;9.57;;;7.73;;
65071;SDS011;51663;52.310;17.016;2023-03-30T18:15:21;10.43;;;9.43;;
65071;SDS011;51663;52.310;17.016;2023-03-30T18:18:28;10.43;;;8.52;;
65071;SDS011;51663;52.310;17.016;2023-03-30T18:21:31;12.90;;;10.23;;
65071;SDS011;51663;52.310;17.016;2023-03-30T18:24:34;11.93;;;6.97;;
65071;SDS011;51663;52.310;17.016;2023-03-30T18:27:36;7.43;;;5.87;;
65071;SDS011;51663;52.310;17.016;2023-03-30T18:30:40;8.50;;;7.65;;
65071;SDS011;51663;52.310;17.016;2023-03-30T18:33:42;7.67;;;6.90;;
65071;SDS011;51663;52.310;17.016;2023-03-30T18:36:44;7.83;;;7.03;;
65071;SDS011;51663;52.310;17.016;2023-03-30T18:39:46;7.83;;;7.13;;
65071;SDS011;51663;52.310;17.016;2023-03-30T18:42:52;4.40;;;4.00;;
65071;SDS011;51663;52.310;17.016;2023-03-30T18:45:55;6.37;;;4.60;;
65071;SDS011;51663;52.310;17.016;2023-03-30T18:49:16;7.47;;;4.25;;
65071;SDS011;51663;52.310;17.016;2023-03-30T18:52:21;8.20;;;4.80;;
65071;SDS011;51663;52.310;17.016;2023-03-30T18:55:23;4.97;;;3.63;;
65071;SDS011;51663;52.310;17.016;2023-03-30T18:58:40;3.50;;;2.50;;
65071;SDS011;51663;52.310;17.016;2023-03-30T19:05:15;6.30;;;3.63;;
65071;SDS011;51663;52.310;17.016;2023-03-30T19:08:22;13.87;;;8.40;;
65071;SDS011;51663;52.310;17.016;2023-03-30T19:11:25;22.90;;;11.77;;
65071;SDS011;51663;52.310;17.016;2023-03-30T19:14:28;18.20;;;9.63;;
65071;SDS011;51663;52.310;17.016;2023-03-30T19:17:32;12.53;;;8.47;;
65071;SDS011;51663;52.310;17.016;2023-03-30T19:20:36;9.57;;;7.07;;
65071;SDS011;51663;52.310;17.016;2023-03-30T19:23:41;9.90;;;6.90;;
65071;SDS011;51663;52.310;17.016;2023-03-30T19:30:09;4.50;;;3.97;;
65071;SDS011;51663;52.310;17.016;2023-03-30T19:44:05;6.37;;;3.60;;
65071;SDS011;51663;52.310;17.016;2023-03-30T19:47:07;6.33;;;3.57;;
65071;SDS011;51663;52.310;17.016;2023-03-30T19:53:33;7.00;;;4.97;;
65071;SDS011;51663;52.310;17.016;2023-03-30T19:56:37;7.77;;;5.63;;
65071;SDS011;51663;52.310;17.016;2023-03-30T19:59:44;8.47;;;6.00;;
65071;SDS011;51663;52.310;17.016;2023-03-30T20:02:48;9.10;;;7.23;;
65071;SDS011;51663;52.310;17.016;2023-03-30T20:06:35;12.10;;;7.97;;
65071;SDS011;51663;52.310;17.016;2023-03-30T20:13:31;13.70;;;9.07;;
65071;SDS011;51663;52.310;17.016;2023-03-30T20:16:33;12.87;;;7.90;;
65071;SDS011;51663;52.310;17.016;2023-03-30T20:19:36;9.17;;;6.40;;
65071;SDS011;51663;52.310;17.016;2023-03-30T20:22:42;8.80;;;6.00;;
65071;SDS011;51663;52.310;17.016;2023-03-30T20:25:44;7.60;;;5.40;;
65071;SDS011;51663;52.310;17.016;2023-03-30T20:28:49;6.93;;;5.07;;
65071;SDS011;51663;52.310;17.016;2023-03-30T20:31:52;6.57;;;4.83;;
65071;SDS011;51663;52.310;17.016;2023-03-30T20:34:54;6.40;;;4.90;;
65071;SDS011;51663;52.310;17.016;2023-03-30T20:37:56;6.13;;;4.90;;
65071;SDS011;51663;52.310;17.016;2023-03-30T20:40:59;6.00;;;5.50;;
65071;SDS011;51663;52.310;17.016;2023-03-30T20:44:04;5.07;;;4.57;;
65071;SDS011;51663;52.310;17.016;2023-03-30T20:47:14;8.53;;;4.97;;
65071;SDS011;51663;52.310;17.016;2023-03-30T20:50:18;7.77;;;5.30;;
65071;SDS011;51663;52.310;17.016;2023-03-30T20:53:20;9.33;;;5.97;;
65071;SDS011;51663;52.310;17.016;2023-03-30T20:56:24;9.13;;;5.53;;
65071;SDS011;51663;52.310;17.016;2023-03-30T20:59:29;5.70;;;5.10;;
65071;SDS011;51663;52.310;17.016;2023-03-30T21:02:32;6.57;;;5.47;;
65071;SDS011;51663;52.310;17.016;2023-03-30T21:05:35;7.03;;;5.03;;
65071;SDS011;51663;52.310;17.016;2023-03-30T21:08:38;7.80;;;5.67;;
65071;SDS011;51663;52.310;17.016;2023-03-30T21:11:40;8.03;;;5.10;;
65071;SDS011;51663;52.310;17.016;2023-03-30T21:14:43;9.40;;;5.13;;
65071;SDS011;51663;52.310;17.016;2023-03-30T21:17:46;8.70;;;5.20;;
65071;SDS011;51663;52.310;17.016;2023-03-30T21:20:48;7.07;;;4.67;;
65071;SDS011;51663;52.310;17.016;2023-03-30T21:23:50;7.00;;;4.93;;
65071;SDS011;51663;52.310;17.016;2023-03-30T21:26:53;6.13;;;5.10;;
65071;SDS011;51663;52.310;17.016;2023-03-30T21:29:55;6.00;;;5.10;;
65071;SDS011;51663;52.310;17.016;2023-03-30T21:32:57;5.70;;;4.80;;
65071;SDS011;51663;52.310;17.016;2023-03-30T21:35:59;5.97;;;4.57;;
65071;SDS011;51663;52.310;17.016;2023-03-30T21:39:02;5.23;;;4.00;;
65071;SDS011;51663;52.310;17.016;2023-03-30T21:42:04;5.23;;;4.73;;
65071;SDS011;51663;52.310;17.016;2023-03-30T21:45:07;7.53;;;4.80;;
65071;SDS011;51663;52.310;17.016;2023-03-30T21:48:12;5.47;;;4.70;;
65071;SDS011;51663;52.310;17.016;2023-03-30T21:51:16;6.80;;;4.80;;
65071;SDS011;51663;52.310;17.016;2023-03-30T21:54:23;5.00;;;4.37;;
65071;SDS011;51663;52.310;17.016;2023-03-30T21:57:25;6.67;;;5.17;;
65071;SDS011;51663;52.310;17.016;2023-03-30T22:00:30;6.90;;;4.77;;
65071;SDS011;51663;52.310;17.016;2023-03-30T22:03:32;8.67;;;5.17;;
65071;SDS011;51663;52.310;17.016;2023-03-30T22:06:34;5.27;;;4.20;;
65071;SDS011;51663;52.310;17.016;2023-03-30T22:09:37;5.43;;;4.50;;
65071;SDS011;51663;52.310;17.016;2023-03-30T22:12:39;7.57;;;4.80;;
65071;SDS011;51663;52.310;17.016;2023-03-30T22:15:42;5.50;;;4.67;;
65071;SDS011;51663;52.310;17.016;2023-03-30T22:18:44;4.77;;;4.37;;
65071;SDS011;51663;52.310;17.016;2023-03-30T22:21:47;8.33;;;5.80;;
65071;SDS011;51663;52.310;17.016;2023-03-30T22:24:50;5.30;;;4.83;;
65071;SDS011;51663;52.310;17.016;2023-03-30T22:27:52;8.77;;;5.70;;
65071;SDS011;51663;52.310;17.016;2023-03-30T22:30:55;11.47;;;6.70;;
65071;SDS011;51663;52.310;17.016;2023-03-30T22:33:58;13.53;;;8.37;;
65071;SDS011;51663;52.310;17.016;2023-03-30T22:37:00;7.30;;;6.17;;
65071;SDS011;51663;52.310;17.016;2023-03-30T22:40:03;8.60;;;5.00;;
65071;SDS011;51663;52.310;17.016;2023-03-30T22:43:07;7.07;;;4.63;;
65071;SDS011;51663;52.310;17.016;2023-03-30T22:46:10;8.30;;;4.80;;